Time;durP1;ratioP1;P1;durP2;ratioP2;P2;SDS_P1;SDS_P2;PMS_P1;PMS_P2;Temp;Humidity;BMP_temperature;BMP_pressure;BME280_temperature;BME280_humidity;BME280_pressure;Samples;Min_cycle;Max_cycle;Signal;HPM_P1;HPM_P2
2022/02/15 00:01:30;;;;;;;3.27;1.50;;;;;;;6.20;77.65;99603.97;5018476;28;20214;-80
2022/02/15 00:03:56;;;;;;;2.33;1.00;;;;;;;6.28;77.88;99610.78;5018515;28;20233;-82
2022/02/15 00:06:23;;;;;;;2.57;1.03;;;;;;;6.28;76.95;99615.97;5018598;28;20237;-80
2022/02/15 00:08:50;;;;;;;2.13;1.00;;;;;;;6.36;76.81;99629.66;5018534;28;20260;-80
2022/02/15 00:11:17;;;;;;;1.70;1.10;;;;;;;6.38;76.78;99636.53;5018155;28;20657;-80
2022/02/15 00:13:44;;;;;;;2.87;1.00;;;;;;;6.39;76.01;99643.44;5019093;28;20206;-79
2022/02/15 00:16:10;;;;;;;2.57;1.53;;;;;;;6.33;76.62;99636.63;5018600;28;20234;-80
2022/02/15 00:18:36;;;;;;;2.37;1.00;;;;;;;6.11;76.66;99636.91;5018700;28;20261;-80
2022/02/15 00:21:03;;;;;;;1.17;0.90;;;;;;;6.08;77.92;99623.13;5017896;28;20277;-79
2022/02/15 00:23:29;;;;;;;1.87;1.00;;;;;;;6.12;77.60;99619.63;5017946;28;20645;-79
2022/02/15 00:25:57;;;;;;;2.20;1.13;;;;;;;5.94;77.48;99613.78;5018594;28;20731;-80
2022/02/15 00:28:23;;;;;;;1.97;0.80;;;;;;;6.10;77.59;99609.28;5017713;28;20214;-82
2022/02/15 00:30:49;;;;;;;2.03;1.03;;;;;;;6.09;78.19;99614.50;5018274;28;20278;-80
2022/02/15 00:33:16;;;;;;;2.53;1.13;;;;;;;6.17;77.81;99615.25;5017290;28;20627;-82
2022/02/15 00:35:42;;;;;;;2.20;1.20;;;;;;;6.15;77.11;99624.78;5017901;28;20316;-79
2022/02/15 00:38:09;;;;;;;1.33;1.07;;;;;;;6.21;77.37;99635.06;5017897;28;20207;-80
2022/02/15 00:40:35;;;;;;;2.53;0.73;;;;;;;6.05;76.57;99634.41;5018101;28;20705;-81
2022/02/15 00:43:03;;;;;;;1.60;1.00;;;;;;;6.06;77.63;99638.69;5018050;28;20210;-80
2022/02/15 00:45:29;;;;;;;2.83;0.97;;;;;;;5.99;77.69;99626.72;5018058;28;20276;-79
2022/02/15 00:47:56;;;;;;;2.83;1.37;;;;;;;5.89;78.08;99615.59;5017809;28;20279;-79
2022/02/15 00:50:22;;;;;;;2.20;1.70;;;;;;;5.88;78.22;99625.97;5017555;28;20256;-82
2022/02/15 00:52:48;;;;;;;2.97;1.63;;;;;;;5.93;78.48;99621.59;5017594;28;20245;-81
2022/02/15 00:55:15;;;;;;;4.40;1.10;;;;;;;5.95;77.99;99619.88;5017787;28;20258;-81
2022/02/15 00:57:41;;;;;;;2.17;1.00;;;;;;;5.91;78.72;99616.44;5017334;28;20746;-82
2022/02/15 01:00:12;;;;;;;6.27;1.50;;;;;;;5.94;78.38;99616.38;5017420;28;20209;-79
2022/02/15 01:02:38;;;;;;;3.17;1.20;;;;;;;5.89;78.87;99619.94;5017622;28;20209;-79
2022/02/15 01:05:06;;;;;;;3.43;1.40;;;;;;;6.02;78.49;99641.38;5017604;28;20257;-83
2022/02/15 01:07:32;;;;;;;1.97;1.20;;;;;;;5.98;78.23;99630.19;5018861;28;20260;-80
2022/02/15 01:09:59;;;;;;;2.47;1.10;;;;;;;6.01;78.38;99637.06;5017357;28;20205;-79
2022/02/15 01:12:25;;;;;;;2.67;1.20;;;;;;;6.03;77.79;99637.91;5017687;28;20206;-79
2022/02/15 01:14:52;;;;;;;2.13;0.93;;;;;;;5.96;77.88;99643.16;5017040;28;20621;-81
2022/02/15 01:17:20;;;;;;;1.57;1.10;;;;;;;5.74;77.98;99639.94;5016696;28;20250;-79
2022/02/15 01:19:46;;;;;;;1.47;1.00;;;;;;;5.66;78.86;99625.38;5017301;28;20241;-79
2022/02/15 01:22:13;;;;;;;2.40;1.30;;;;;;;5.63;79.19;99607.28;5017772;28;20210;-82
2022/02/15 01:24:39;;;;;;;2.33;0.97;;;;;;;5.67;79.23;99611.53;5017212;28;20233;-80
2022/02/15 01:27:06;;;;;;;2.77;1.10;;;;;;;5.50;79.56;99606.59;5016946;28;20254;-79
2022/02/15 01:29:32;;;;;;;3.03;1.10;;;;;;;5.52;80.11;99597.06;5017641;28;20214;-81
2022/02/15 01:31:58;;;;;;;3.13;1.50;;;;;;;5.60;80.23;99587.47;5016888;28;20220;-82
2022/02/15 01:34:26;;;;;;;2.23;1.30;;;;;;;5.57;79.48;99596.16;5008832;28;20226;-82
2022/02/15 01:36:52;;;;;;;4.17;0.90;;;;;;;5.54;79.95;99595.31;5016807;28;20237;-81
2022/02/15 01:39:19;;;;;;;2.50;1.20;;;;;;;5.57;80.10;99584.94;5016810;28;20238;-79
2022/02/15 01:41:45;;;;;;;2.37;1.20;;;;;;;5.55;79.69;99591.88;5017414;28;20287;-79
2022/02/15 01:44:12;;;;;;;4.07;1.30;;;;;;;5.51;80.48;99577.22;5017505;28;20349;-80
2022/02/15 01:46:39;;;;;;;3.33;1.27;;;;;;;5.58;80.46;99579.72;5016678;28;20258;-81
2022/02/15 01:49:05;;;;;;;3.83;1.40;;;;;;;5.69;79.80;99586.50;5017297;28;20206;-79
2022/02/15 01:51:33;;;;;;;1.93;1.10;;;;;;;5.70;80.05;99601.16;5016461;28;20210;-80
2022/02/15 01:53:59;;;;;;;4.83;2.03;;;;;;;5.58;79.52;99608.19;5016484;28;20257;-80
2022/02/15 01:56:27;;;;;;;3.27;1.07;;;;;;;5.66;80.14;99609.84;5016762;28;20233;-80
2022/02/15 01:58:55;;;;;;;1.57;1.20;;;;;;;5.69;80.03;99618.44;5016460;28;20255;-80
2022/02/15 02:01:22;;;;;;;1.23;1.00;;;;;;;5.67;79.60;99616.72;5016087;28;20207;-78
2022/02/15 02:03:48;;;;;;;2.10;1.10;;;;;;;5.69;79.38;99610.69;5016530;28;20207;-80
2022/02/15 02:06:16;;;;;;;3.07;1.20;;;;;;;5.69;79.60;99621.03;5016844;28;20247;-80
2022/02/15 02:08:43;;;;;;;2.63;0.90;;;;;;;5.59;79.63;99622.03;5016767;28;20214;-79
2022/02/15 02:11:10;;;;;;;1.93;1.03;;;;;;;5.56;79.88;99612.53;5016353;28;20207;-80
2022/02/15 02:13:37;;;;;;;2.93;1.20;;;;;;;5.53;80.21;99609.13;5016431;28;20355;-80
2022/02/15 02:16:03;;;;;;;4.87;1.73;;;;;;;5.53;80.36;99603.94;5016875;28;20245;-80
2022/02/15 02:18:30;;;;;;;2.53;1.27;;;;;;;5.57;79.96;99606.50;5016638;28;20584;-80
2022/02/15 02:21:01;;;;;;;4.50;1.30;;;;;;;5.63;79.69;99612.47;5015930;28;20213;-80
2022/02/15 02:23:27;;;;;;;4.60;1.37;;;;;;;5.64;80.40;99606.44;5017130;28;20240;-81
2022/02/15 02:25:54;;;;;;;3.07;1.33;;;;;;;5.57;79.71;99616.00;5016708;28;20237;-80
2022/02/15 02:28:21;;;;;;;4.03;1.40;;;;;;;5.41;80.38;99607.56;5016069;28;20218;-80
2022/02/15 02:30:48;;;;;;;1.30;1.17;;;;;;;5.36;80.42;99606.75;5016576;28;20669;-80
2022/02/15 02:33:14;;;;;;;1.20;0.97;;;;;;;5.28;80.96;99595.63;5016247;28;20206;-80
2022/02/15 02:35:41;;;;;;;3.77;1.50;;;;;;;5.23;81.76;99580.13;5016538;28;20233;-82
2022/02/15 02:38:08;;;;;;;5.27;1.43;;;;;;;5.23;81.77;99561.19;5016691;28;20229;-80
2022/02/15 02:40:35;;;;;;;2.83;1.40;;;;;;;5.21;82.28;99555.16;5016659;28;20240;-80
2022/02/15 02:43:01;;;;;;;6.53;1.40;;;;;;;5.20;82.81;99548.28;5016335;28;20218;-80
2022/02/15 02:45:28;;;;;;;2.80;1.47;;;;;;;5.26;82.75;99537.88;5017356;28;20234;-82
2022/02/15 02:47:56;;;;;;;3.90;1.47;;;;;;;5.37;82.32;99539.44;5016377;28;20294;-83
2022/02/15 02:50:26;;;;;;;3.10;1.93;;;;;;;5.43;82.92;99535.94;5015879;28;20269;-80
2022/02/15 02:52:53;;;;;;;3.37;2.20;;;;;;;5.48;82.58;99534.13;5015784;28;20293;-80
2022/02/15 02:55:21;;;;;;;4.27;1.97;;;;;;;5.62;82.94;99543.47;5016506;28;20256;-79
2022/02/15 02:57:47;;;;;;;3.17;2.60;;;;;;;5.74;81.68;99541.53;5016326;28;20201;-80
2022/02/15 03:00:16;;;;;;;3.17;2.60;;;;;;;5.84;81.81;99560.41;5015704;28;20213;-80
2022/02/15 03:02:43;;;;;;;6.30;3.63;;;;;;;5.93;81.41;99578.41;5015896;28;20210;-80
2022/02/15 03:05:09;;;;;;;4.90;3.07;;;;;;;6.00;81.13;99586.97;5016388;28;20604;-82
2022/02/15 03:07:36;;;;;;;3.20;2.90;;;;;;;6.08;80.66;99594.66;5016076;28;20261;-83
2022/02/15 03:10:02;;;;;;;6.50;3.23;;;;;;;6.15;80.49;99604.06;5016159;28;20684;-82
2022/02/15 03:12:30;;;;;;;5.70;3.10;;;;;;;6.15;80.43;99606.66;5016205;28;20207;-82
2022/02/15 03:14:56;;;;;;;5.77;3.00;;;;;;;6.21;81.32;99605.69;5016007;28;20268;-82
2022/02/15 03:17:23;;;;;;;4.43;2.67;;;;;;;6.29;81.14;99615.06;5017033;28;20322;-83
2022/02/15 03:19:51;;;;;;;4.03;2.57;;;;;;;6.38;80.25;99623.59;5016994;28;20230;-82
2022/02/15 03:22:18;;;;;;;4.70;3.03;;;;;;;6.39;80.00;99625.31;5020209;28;20669;-81
2022/02/15 03:24:45;;;;;;;6.10;3.13;;;;;;;6.42;80.40;99625.25;5020248;28;20261;-83
2022/02/15 03:27:12;;;;;;;4.80;2.90;;;;;;;6.44;80.57;99637.31;5019402;28;20257;-82
2022/02/15 03:29:39;;;;;;;5.27;3.47;;;;;;;6.32;80.87;99635.78;5017797;28;20229;-81
2022/02/15 03:32:06;;;;;;;4.93;3.50;;;;;;;6.39;80.73;99644.31;5017852;28;20206;-81
2022/02/15 03:34:33;;;;;;;6.33;4.10;;;;;;;6.36;79.68;99644.34;5017000;28;20234;-82
2022/02/15 03:36:59;;;;;;;5.60;3.80;;;;;;;6.41;79.86;99645.13;5017062;28;20261;-80
2022/02/15 03:39:25;;;;;;;4.10;3.70;;;;;;;6.44;80.50;99646.81;5017312;28;20207;-81
2022/02/15 03:44:36;;;;;;;7.00;4.87;;;;;;;6.48;79.80;99669.22;5017670;28;20232;-82
2022/02/15 03:47:05;;;;;;;6.77;4.43;;;;;;;6.47;79.65;99670.97;5016714;28;20234;-80
2022/02/15 03:49:31;;;;;;;5.80;5.07;;;;;;;6.51;79.91;99679.56;5017246;28;20209;-80
2022/02/15 03:51:57;;;;;;;6.73;4.60;;;;;;;6.46;79.99;99684.81;5017166;28;20210;-82
2022/02/15 03:54:24;;;;;;;9.77;4.83;;;;;;;6.53;79.50;99682.97;5016769;28;20246;-80
2022/02/15 03:56:50;;;;;;;6.83;4.43;;;;;;;6.62;79.50;99705.31;5017043;28;20635;-80
2022/02/15 03:59:16;;;;;;;5.70;4.00;;;;;;;6.71;78.56;99705.19;5016953;28;20273;-82
2022/02/15 04:01:43;;;;;;;5.87;4.27;;;;;;;6.76;79.51;99714.63;5016372;28;20241;-81
2022/02/15 04:04:10;;;;;;;6.37;4.90;;;;;;;6.77;78.95;99720.66;5017164;28;20214;-80
2022/02/15 04:06:37;;;;;;;5.10;4.67;;;;;;;6.83;78.40;99728.34;5017433;28;20271;-81
2022/02/15 04:09:06;;;;;;;6.50;5.80;;;;;;;6.87;78.07;99736.94;5017199;28;20297;-81
2022/02/15 04:11:33;;;;;;;8.63;5.53;;;;;;;6.85;78.55;99749.94;5017133;28;20245;-80
2022/02/15 04:13:59;;;;;;;8.90;7.20;;;;;;;6.73;78.12;99750.97;5016752;28;20202;-79
2022/02/15 04:16:26;;;;;;;8.87;6.23;;;;;;;6.68;78.77;99747.59;5017248;28;20747;-81
2022/02/15 04:18:52;;;;;;;8.20;7.37;;;;;;;6.76;79.10;99747.50;5017023;28;20650;-80
2022/02/15 04:21:23;;;;;;;9.23;6.73;;;;;;;6.74;78.44;99754.44;5016613;28;20207;-80
2022/02/15 04:23:50;;;;;;;7.33;6.63;;;;;;;6.75;78.83;99749.19;5016705;28;20217;-80
2022/02/15 04:26:17;;;;;;;9.93;6.80;;;;;;;6.79;78.86;99752.63;5017419;28;20247;-81
2022/02/15 04:28:43;;;;;;;9.30;6.90;;;;;;;6.87;78.77;99760.28;5016296;28;20207;-81
2022/02/15 04:31:10;;;;;;;7.53;6.70;;;;;;;6.89;79.12;99761.97;5014848;28;20257;-79
2022/02/15 04:33:37;;;;;;;8.23;7.33;;;;;;;6.92;79.03;99759.34;5016816;28;20621;-80
2022/02/15 04:36:04;;;;;;;7.63;6.87;;;;;;;6.86;78.59;99766.38;5016461;28;20234;-81
2022/02/15 04:38:32;;;;;;;8.27;7.33;;;;;;;6.77;78.95;99767.34;5016653;28;20217;-80
2022/02/15 04:40:58;;;;;;;10.27;7.97;;;;;;;6.82;78.98;99762.97;5016404;28;20264;-80
2022/02/15 04:43:25;;;;;;;8.50;7.80;;;;;;;6.78;79.14;99763.88;5016353;28;20214;-81
2022/02/15 04:45:52;;;;;;;9.13;7.70;;;;;;;6.77;78.86;99775.13;5015898;28;20236;-80
2022/02/15 04:48:18;;;;;;;12.20;7.30;;;;;;;6.73;78.79;99782.09;5016404;28;20285;-80
2022/02/15 04:50:44;;;;;;;8.40;7.07;;;;;;;6.66;78.69;99787.38;5016230;28;20215;-80
2022/02/15 04:53:11;;;;;;;14.03;6.63;;;;;;;6.74;78.24;99790.75;5016205;28;20202;-80
2022/02/15 04:55:38;;;;;;;9.97;6.60;;;;;;;6.76;78.11;99814.94;5016092;28;20646;-80
2022/02/15 04:58:05;;;;;;;6.43;5.83;;;;;;;6.75;77.83;99836.53;5016721;28;20206;-79
2022/02/15 05:00:32;;;;;;;9.43;6.43;;;;;;;6.81;78.16;99828.69;5015622;28;20206;-81
2022/02/15 05:02:58;;;;;;;6.63;5.97;;;;;;;6.89;77.64;99825.97;5015428;28;20206;-80
2022/02/15 05:05:24;;;;;;;6.30;5.70;;;;;;;6.87;77.57;99843.31;5016485;28;20230;-80
2022/02/15 05:07:50;;;;;;;7.23;6.53;;;;;;;6.90;77.55;99853.66;5015537;28;20231;-81
2022/02/15 05:10:17;;;;;;;7.53;6.47;;;;;;;6.82;77.03;99851.16;5015455;28;20607;-80
2022/02/15 05:12:44;;;;;;;7.03;6.33;;;;;;;6.80;78.03;99859.81;5016566;28;20230;-80
2022/02/15 05:15:11;;;;;;;6.93;6.33;;;;;;;6.84;77.21;99853.72;5040154;23;20695;-80
2022/02/15 05:17:43;;;;;;;7.97;6.20;;;;;;;6.76;77.51;99861.63;5025521;28;20213;-80
2022/02/15 05:20:11;;;;;;;7.20;6.60;;;;;;;6.76;77.61;99854.69;5014172;28;20300;-77
2022/02/15 05:22:37;;;;;;;7.00;6.50;;;;;;;6.79;78.06;99853.78;5012977;28;20214;-78
2022/02/15 05:25:04;;;;;;;7.97;7.27;;;;;;;6.82;77.79;99847.69;5012666;28;20227;-79
2022/02/15 05:27:31;;;;;;;7.97;7.23;;;;;;;6.81;78.26;99846.84;5012702;28;20223;-77
2022/02/15 05:29:58;;;;;;;10.07;7.27;;;;;;;6.80;78.10;99841.66;5013016;28;20210;-78
2022/02/15 05:32:25;;;;;;;8.77;8.00;;;;;;;6.65;78.37;99842.72;5012767;28;20211;-79
2022/02/15 05:34:51;;;;;;;7.53;6.77;;;;;;;6.75;78.75;99834.78;5012634;28;20676;-78
2022/02/15 05:37:17;;;;;;;8.20;7.50;;;;;;;6.75;78.88;99841.72;5012702;28;20229;-79
2022/02/15 05:39:44;;;;;;;8.83;7.93;;;;;;;6.67;78.49;99825.41;5029875;28;20683;-78
2022/02/15 05:42:10;;;;;;;8.67;7.20;;;;;;;6.65;79.11;99833.22;5032045;28;20205;-78
2022/02/15 05:44:37;;;;;;;9.40;8.43;;;;;;;6.69;79.10;99831.44;5032299;28;20297;-79
2022/02/15 05:47:05;;;;;;;9.50;8.70;;;;;;;6.71;79.61;99830.53;5031929;28;20762;-78
2022/02/15 05:50:49;;;;;;;9.63;8.63;;;;;;;6.73;79.19;99831.38;5032092;28;20236;-78
2022/02/15 05:52:18;;;;;;;9.37;7.77;;;;;;;6.56;79.73;99826.41;5032137;28;20692;-77
2022/02/15 05:54:44;;;;;;;9.93;9.03;;;;;;;6.60;79.44;99828.94;5031849;28;20685;-79
2022/02/15 05:57:10;;;;;;;9.23;8.40;;;;;;;6.59;79.54;99824.66;5032355;28;20202;-79
2022/02/15 05:59:37;;;;;;;9.77;8.87;;;;;;;6.64;80.00;99825.44;5031610;28;20263;-80
2022/02/15 06:02:05;;;;;;;9.47;8.67;;;;;;;6.68;79.84;99833.19;5031958;28;20742;-79
2022/02/15 06:04:31;;;;;;;8.93;8.13;;;;;;;6.68;79.71;99825.41;5031592;28;20209;-79
2022/02/15 06:06:57;;;;;;;9.40;8.60;;;;;;;6.78;79.43;99820.06;5032032;28;20229;-79
2022/02/15 06:09:24;;;;;;;8.90;8.00;;;;;;;6.75;79.47;99832.19;5031363;28;20205;-79
2022/02/15 06:11:50;;;;;;;9.43;8.63;;;;;;;6.84;78.63;99844.22;5031936;28;20205;-78
2022/02/15 06:14:16;;;;;;;9.63;8.73;;;;;;;6.84;79.46;99853.72;5031713;28;20213;-79
2022/02/15 06:16:43;;;;;;;10.80;9.87;;;;;;;6.61;80.21;99848.84;5031641;28;20237;-78
2022/02/15 06:19:10;;;;;;;11.63;9.60;;;;;;;6.74;79.57;99845.22;5031706;28;20259;-78
2022/02/15 06:21:37;;;;;;;10.33;9.53;;;;;;;6.82;79.28;99850.28;5031525;28;20291;-78
2022/02/15 06:24:03;;;;;;;10.50;9.67;;;;;;;6.66;80.08;99852.22;5031385;28;20209;-78
2022/02/15 06:26:30;;;;;;;10.13;9.23;;;;;;;6.65;80.80;99838.38;5031823;28;20279;-78
2022/02/15 06:28:58;;;;;;;9.70;8.90;;;;;;;6.68;80.84;99822.81;5031750;28;20229;-78
2022/02/15 06:31:24;;;;;;;11.43;9.07;;;;;;;6.61;81.15;99823.75;5031380;28;20292;-78
2022/02/15 06:33:50;;;;;;;10.33;9.30;;;;;;;6.65;81.14;99828.00;5031387;28;20259;-78
2022/02/15 06:36:18;;;;;;;11.40;10.40;;;;;;;6.62;80.92;99845.34;5031402;28;20294;-78
2022/02/15 06:38:45;;;;;;;12.17;11.07;;;;;;;6.73;80.77;99851.25;5031553;28;20746;-78
2022/02/15 06:41:11;;;;;;;11.60;10.67;;;;;;;6.84;80.78;99858.91;5030993;28;20670;-79
2022/02/15 06:43:37;;;;;;;11.80;10.80;;;;;;;6.89;80.17;99872.69;5031620;28;20252;-78
2022/02/15 06:46:04;;;;;;;12.03;10.97;;;;;;;6.93;79.61;99885.56;5031431;28;20307;-77
2022/02/15 06:48:30;;;;;;;13.37;12.03;;;;;;;6.75;79.86;99883.22;5031193;28;20233;-80
2022/02/15 06:50:57;;;;;;;11.23;10.23;;;;;;;6.77;80.58;99884.06;5031078;28;20233;-79
2022/02/15 06:53:25;;;;;;;12.50;11.40;;;;;;;6.81;80.19;99890.94;5031604;28;20225;-78
2022/02/15 06:55:51;;;;;;;12.27;11.13;;;;;;;6.84;79.78;99883.13;5033823;28;20719;-78
2022/02/15 06:58:17;;;;;;;12.33;11.23;;;;;;;6.91;79.77;99899.47;5035488;28;20235;-79
2022/02/15 07:00:44;;;;;;;12.33;11.13;;;;;;;6.93;79.35;99908.06;5034997;28;20259;-78
2022/02/15 07:03:10;;;;;;;12.47;11.27;;;;;;;7.00;80.17;99909.72;5035618;28;20210;-79
2022/02/15 07:05:36;;;;;;;12.87;11.67;;;;;;;7.01;79.92;99915.78;5035248;28;20291;-79
2022/02/15 07:08:05;;;;;;;13.50;12.20;;;;;;;6.94;79.60;99902.88;5035251;28;20294;-79
2022/02/15 07:10:32;;;;;;;13.43;12.13;;;;;;;6.84;80.37;99903.00;5035021;28;20205;-78
2022/02/15 07:12:59;;;;;;;13.73;12.53;;;;;;;6.71;80.53;99910.94;5034998;28;20672;-79
2022/02/15 07:15:26;;;;;;;13.47;12.37;;;;;;;6.67;80.35;99906.66;5035175;28;20240;-78
2022/02/15 07:17:52;;;;;;;13.70;12.37;;;;;;;6.78;80.26;99906.53;5035095;28;20655;-78
2022/02/15 07:20:18;;;;;;;15.90;12.63;;;;;;;6.83;80.40;99916.84;5034725;28;20211;-77
2022/02/15 07:22:45;;;;;;;13.80;12.40;;;;;;;6.87;80.77;99919.38;5034938;28;20677;-78
2022/02/15 07:25:11;;;;;;;13.90;12.73;;;;;;;6.83;80.73;99924.63;5034466;28;20730;-79
2022/02/15 07:27:39;;;;;;;13.30;12.23;;;;;;;6.92;80.63;99933.16;5034527;28;20290;-79
2022/02/15 07:30:07;;;;;;;14.07;12.67;;;;;;;6.95;79.49;99947.84;5034967;28;20248;-77
2022/02/15 07:32:35;;;;;;;13.80;12.47;;;;;;;6.99;79.59;99954.69;5035379;28;20209;-79
2022/02/15 07:35:01;;;;;;;13.43;12.03;;;;;;;6.93;78.71;99968.59;5036393;28;20207;-80
2022/02/15 07:37:28;;;;;;;14.33;13.10;;;;;;;6.80;79.53;99966.16;5035071;28;20204;-78
2022/02/15 07:39:55;;;;;;;13.47;12.33;;;;;;;6.86;79.76;99969.56;5034524;28;20216;-79
2022/02/15 07:42:21;;;;;;;14.60;13.23;;;;;;;6.93;79.62;99975.53;5034157;28;20194;-79
2022/02/15 07:44:49;;;;;;;14.07;12.67;;;;;;;6.98;79.89;99973.75;5034259;28;20209;-78
2022/02/15 07:47:16;;;;;;;13.47;12.47;;;;;;;7.02;78.28;99985.81;5033794;28;20252;-78
2022/02/15 07:49:42;;;;;;;15.13;13.77;;;;;;;7.05;78.83;99992.69;5031641;28;20212;-79
2022/02/15 07:52:09;;;;;;;16.70;13.33;;;;;;;7.02;78.75;99997.94;5034077;28;20251;-78
2022/02/15 07:54:37;;;;;;;13.93;12.53;;;;;;;6.95;78.89;99992.78;5033908;28;20225;-78
2022/02/15 07:57:05;;;;;;;14.97;13.50;;;;;;;7.01;79.75;99996.22;5031498;28;20332;-77
2022/02/15 07:59:31;;;;;;;14.13;12.70;;;;;;;7.01;78.85;99996.22;5033826;28;20251;-76
2022/02/15 08:01:59;;;;;;;15.43;13.93;;;;;;;6.87;79.27;99998.97;5033900;28;20263;-76
2022/02/15 08:04:25;;;;;;;15.27;13.97;;;;;;;6.80;79.47;99981.72;5034104;28;20201;-79
2022/02/15 08:06:55;;;;;;;15.13;13.67;;;;;;;6.81;80.62;99984.31;5034017;28;20283;-78
2022/02/15 08:09:22;;;;;;;15.40;14.00;;;;;;;6.83;79.97;99979.13;5034270;28;20229;-77
2022/02/15 08:11:54;;;;;;;13.80;12.50;;;;;;;6.97;79.85;99985.84;5035555;28;20628;-79
2022/02/15 08:14:22;;;;;;;15.67;14.13;;;;;;;7.07;80.05;99999.59;5033304;28;20615;-78
2022/02/15 08:16:48;;;;;;;15.43;14.13;;;;;;;7.15;80.00;99986.53;5036142;28;20241;-78
2022/02/15 08:19:16;;;;;;;14.90;13.60;;;;;;;6.89;79.50;100005.00;5036634;28;20634;-78
2022/02/15 08:21:42;;;;;;;14.17;12.97;;;;;;;7.01;79.90;100002.25;5035712;28;20738;-78
2022/02/15 08:24:09;;;;;;;14.97;13.57;;;;;;;7.05;80.09;100016.06;5035793;28;20216;-77
2022/02/15 08:26:35;;;;;;;14.20;12.77;;;;;;;7.08;79.33;100011.69;5035530;28;20732;-78
2022/02/15 08:29:01;;;;;;;15.43;13.93;;;;;;;7.12;79.56;100017.72;5036036;28;20222;-79
2022/02/15 08:31:28;;;;;;;16.03;14.20;;;;;;;7.10;80.16;100017.72;5033958;28;20240;-78
2022/02/15 08:33:54;;;;;;;14.53;13.23;;;;;;;6.92;80.45;100012.75;5035927;28;20213;-79
2022/02/15 08:36:22;;;;;;;15.00;13.67;;;;;;;7.03;80.50;100007.44;5033147;28;20228;-79
2022/02/15 08:38:48;;;;;;;15.93;14.33;;;;;;;6.98;80.20;100002.31;5036023;28;20268;-77
2022/02/15 08:41:15;;;;;;;14.67;13.37;;;;;;;6.94;80.77;100004.06;5034874;28;20292;-77
2022/02/15 08:43:41;;;;;;;14.17;12.77;;;;;;;6.88;80.38;100006.72;5035489;28;20652;-79
2022/02/15 08:46:07;;;;;;;15.10;13.60;;;;;;;7.00;80.06;100005.75;5035237;28;20785;-79
2022/02/15 08:48:34;;;;;;;14.40;13.10;;;;;;;7.03;80.69;100005.69;5035264;28;20224;-78
2022/02/15 08:51:00;;;;;;;14.47;13.13;;;;;;;7.18;80.11;100006.41;5035620;28;20213;-78
2022/02/15 08:53:28;;;;;;;14.37;13.07;;;;;;;7.32;79.61;100027.84;5035037;28;20205;-78
2022/02/15 08:55:54;;;;;;;15.98;14.77;;;;;;;7.35;78.55;100048.56;5032098;28;20464;-79
2022/02/15 08:58:21;;;;;;;14.63;13.43;;;;;;;7.47;78.63;100038.06;5033115;28;20618;-77
2022/02/15 09:00:47;;;;;;;13.70;12.57;;;;;;;7.52;78.61;100059.63;5032672;28;20263;-78
2022/02/15 09:03:14;;;;;;;14.13;12.90;;;;;;;7.31;77.94;100080.66;5033037;28;20259;-76
2022/02/15 09:05:41;;;;;;;15.05;13.80;;;;;;;7.37;79.31;100065.00;5032489;28;20460;-78
2022/02/15 09:08:08;;;;;;;14.63;12.60;;;;;;;7.53;79.08;100050.97;5032446;28;20304;-78
2022/02/15 09:10:38;;;;;;;13.90;12.60;;;;;;;7.50;78.35;100070.91;5032273;28;20604;-77
2022/02/15 09:13:05;;;;;;;12.43;11.33;;;;;;;7.55;77.11;100088.16;5032599;28;20208;-77
2022/02/15 09:15:31;;;;;;;12.37;11.17;;;;;;;7.63;77.99;100101.06;5032635;28;20281;-77
2022/02/15 09:17:58;;;;;;;14.38;13.02;;;;;;;7.69;77.50;100084.50;5031506;28;20440;-79
2022/02/15 09:20:24;;;;;;;13.13;11.93;;;;;;;7.70;76.74;100120.88;5032973;28;20297;-79
2022/02/15 09:22:50;;;;;;;12.73;11.53;;;;;;;7.68;77.14;100119.19;5033391;28;20206;-79
2022/02/15 09:25:17;;;;;;;15.10;13.63;;;;;;;7.67;77.64;100101.84;5033670;28;20234;-77
2022/02/15 09:27:45;;;;;;;11.33;10.23;;;;;;;7.77;77.37;100106.09;5032631;28;20281;-79
2022/02/15 09:30:12;;;;;;;11.67;10.53;;;;;;;7.68;75.98;100130.41;5032341;28;20272;-78
2022/02/15 09:32:38;;;;;;;12.50;10.70;;;;;;;7.62;76.86;100119.25;5033392;28;20271;-79
2022/02/15 09:35:06;;;;;;;10.73;9.80;;;;;;;7.42;76.21;100135.91;5033135;28;20288;-79
2022/02/15 09:37:32;;;;;;;12.07;10.90;;;;;;;7.52;76.87;100139.28;5031808;28;20209;-78
2022/02/15 09:40:00;;;;;;;12.03;10.83;;;;;;;7.51;77.23;100121.97;5032880;28;20612;-79
2022/02/15 09:42:26;;;;;;;11.17;10.27;;;;;;;7.71;76.67;100111.31;5033568;28;20689;-78
2022/02/15 09:44:54;;;;;;;10.40;9.60;;;;;;;7.79;76.59;100127.72;5033312;28;20212;-79
2022/02/15 09:47:25;;;;;;;11.10;10.10;;;;;;;7.82;77.61;100130.25;5033234;28;20209;-78
2022/02/15 09:49:52;;;;;;;10.53;9.53;;;;;;;7.75;75.97;100158.06;5033211;28;20242;-79
2022/02/15 09:52:20;;;;;;;10.53;9.63;;;;;;;7.74;76.31;100158.91;5034073;28;20766;-79
2022/02/15 09:54:50;;;;;;;10.97;9.77;;;;;;;7.76;77.03;100148.53;5042515;28;20214;-79
2022/02/15 09:57:17;;;;;;;11.37;10.20;;;;;;;7.88;76.79;100142.31;5043426;28;20617;-78
2022/02/15 09:59:43;;;;;;;9.03;8.23;;;;;;;7.88;75.65;100155.31;5041770;28;20677;-80
2022/02/15 10:02:16;;;;;;;8.80;8.10;;;;;;;7.89;76.08;100177.81;5033004;28;20748;-77
2022/02/15 10:04:42;;;;;;;9.00;8.20;;;;;;;7.91;74.87;100194.25;5032571;28;20592;-79
2022/02/15 10:07:11;;;;;;;8.43;7.60;;;;;;;7.82;75.41;100196.97;5032822;28;20206;-78
2022/02/15 10:09:38;;;;;;;8.67;7.77;;;;;;;7.76;75.96;100190.09;5032257;28;20242;-78
2022/02/15 10:12:07;;;;;;;8.47;7.77;;;;;;;7.88;76.27;100184.75;5032187;28;20215;-77
2022/02/15 10:14:36;;;;;;;7.73;7.13;;;;;;;7.84;76.19;100177.00;5032541;28;20204;-79
2022/02/15 10:19:52;;;;;;;8.03;7.33;;;;;;;7.75;75.53;100191.84;5032893;28;20681;-79
2022/02/15 10:22:21;;;;;;;7.43;6.73;;;;;;;7.79;76.13;100171.88;5032580;28;20233;-79
2022/02/15 10:24:51;;;;;;;8.23;7.60;;;;;;;7.69;76.99;100178.91;5031848;28;20200;-78
2022/02/15 10:27:17;;;;;;;8.50;7.70;;;;;;;7.83;77.82;100149.28;5031857;28;20210;-77
2022/02/15 10:29:46;;;;;;;7.63;7.03;;;;;;;7.96;77.26;100133.53;5030693;28;20222;-78
2022/02/15 10:32:17;;;;;;;7.57;6.97;;;;;;;8.02;77.16;100161.19;5032867;28;20209;-78
2022/02/15 10:34:46;;;;;;;7.13;6.63;;;;;;;8.05;75.35;100196.69;5031595;28;20202;-78
2022/02/15 10:37:15;;;;;;;6.80;6.30;;;;;;;7.92;75.56;100207.22;5032256;28;20202;-79
2022/02/15 10:39:44;;;;;;;8.20;7.60;;;;;;;7.71;74.66;100223.03;5031290;28;20206;-79
2022/02/15 10:42:13;;;;;;;8.90;8.10;;;;;;;7.69;75.17;100217.00;5031814;28;20202;-78
2022/02/15 10:44:57;;;;;;;9.00;8.20;;;;;;;7.53;76.13;100203.31;5032225;28;20213;-79
2022/02/15 10:47:25;;;;;;;9.77;8.87;;;;;;;7.68;76.16;100194.50;5031857;28;20213;-79
2022/02/15 10:49:54;;;;;;;8.70;8.00;;;;;;;7.61;75.21;100216.22;5032051;28;20230;-79
2022/02/15 10:52:22;;;;;;;9.37;8.57;;;;;;;7.64;74.63;100219.66;5032297;28;20208;-79
2022/02/15 10:54:49;;;;;;;9.57;8.67;;;;;;;7.69;76.19;100214.41;5031726;28;20694;-79
2022/02/15 10:57:17;;;;;;;9.97;9.17;;;;;;;7.70;74.76;100229.97;5032147;28;20259;-78
2022/02/15 10:59:44;;;;;;;10.10;9.10;;;;;;;7.82;75.36;100220.34;5031547;28;20285;-78
2022/02/15 11:02:16;;;;;;;11.83;10.73;;;;;;;7.76;74.84;100232.50;5032304;28;20208;-79
2022/02/15 11:04:44;;;;;;;10.80;9.87;;;;;;;7.77;74.05;100246.38;5032093;28;20220;-78
2022/02/15 11:07:14;;;;;;;11.97;10.83;;;;;;;7.85;75.71;100215.09;5031491;28;20267;-79
2022/02/15 11:10:07;;;;;;;11.23;10.23;;;;;;;8.01;76.10;100205.38;5029896;28;20721;-79
2022/02/15 11:12:43;;;;;;;12.57;11.47;;;;;;;7.90;75.44;100214.16;5031513;28;20207;-79
2022/02/15 11:17:46;;;;;;;8.07;7.47;;;;;;;7.65;75.78;100200.63;5038959;23;20659;-79
2022/02/15 11:20:16;;;;;;;10.17;8.30;;;;;;;7.60;75.58;100207.56;5013772;28;20668;-79
2022/02/15 11:22:43;;;;;;;9.00;8.20;;;;;;;7.76;74.85;100216.06;5014479;28;20214;-80
2022/02/15 11:25:11;;;;;;;8.60;7.90;;;;;;;7.81;74.48;100229.88;5014725;28;20203;-79
2022/02/15 11:27:37;;;;;;;10.40;9.40;;;;;;;7.80;74.66;100228.16;5035821;28;20700;-80
2022/02/15 11:30:05;;;;;;;9.97;9.17;;;;;;;7.70;75.22;100231.72;5051232;28;20222;-80
2022/02/15 11:32:37;;;;;;;11.33;10.33;;;;;;;7.97;75.28;100222.78;5054359;28;20201;-79
2022/02/15 11:35:09;;;;;;;10.57;9.67;;;;;;;7.75;75.65;100229.94;5054478;28;20282;-79
2022/02/15 11:37:37;;;;;;;11.40;10.30;;;;;;;7.61;75.74;100231.81;5054402;28;20236;-79
2022/02/15 11:40:07;;;;;;;12.27;10.77;;;;;;;7.70;75.83;100201.41;5053639;28;20209;-79
2022/02/15 11:42:47;;;;;;;11.40;10.37;;;;;;;7.85;75.64;100202.97;5057716;28;20201;-80